sensor_id;sensor_type;location;lat;lon;timestamp;temperature;humidity
76291;DHT22;65100;46.884;17.410;2023-02-28T00:00:16;3.41;66.14
76291;DHT22;65100;46.884;17.410;2023-02-28T00:03:02;3.32;66.69
76291;DHT22;65100;46.884;17.410;2023-02-28T00:05:28;3.54;66.00
76291;DHT22;65100;46.884;17.410;2023-02-28T00:08:15;3.51;66.11
76291;DHT22;65100;46.884;17.410;2023-02-28T00:10:40;3.31;66.66
76291;DHT22;65100;46.884;17.410;2023-02-28T00:13:06;3.30;67.12
76291;DHT22;65100;46.884;17.410;2023-02-28T00:16:03;3.35;68.06
76291;DHT22;65100;46.884;17.410;2023-02-28T00:18:29;3.47;67.79
76291;DHT22;65100;46.884;17.410;2023-02-28T00:20:54;3.39;68.08
76291;DHT22;65100;46.884;17.410;2023-02-28T00:23:20;3.35;68.17
76291;DHT22;65100;46.884;17.410;2023-02-28T00:25:45;3.48;68.42
76291;DHT22;65100;46.884;17.410;2023-02-28T00:28:11;3.42;68.90
76291;DHT22;65100;46.884;17.410;2023-02-28T00:30:36;3.55;69.94
76291;DHT22;65100;46.884;17.410;2023-02-28T00:33:02;3.48;68.85
76291;DHT22;65100;46.884;17.410;2023-02-28T00:35:27;3.31;68.56
76291;DHT22;65100;46.884;17.410;2023-02-28T00:37:53;2.82;68.70
76291;DHT22;65100;46.884;17.410;2023-02-28T00:40:18;2.87;70.21
76291;DHT22;65100;46.884;17.410;2023-02-28T00:42:44;2.87;68.87
76291;DHT22;65100;46.884;17.410;2023-02-28T00:45:09;2.72;69.55
76291;DHT22;65100;46.884;17.410;2023-02-28T00:47:35;2.60;69.88
76291;DHT22;65100;46.884;17.410;2023-02-28T00:50:01;2.49;70.43
76291;DHT22;65100;46.884;17.410;2023-02-28T00:52:26;2.83;68.99
76291;DHT22;65100;46.884;17.410;2023-02-28T00:54:51;2.73;69.93
76291;DHT22;65100;46.884;17.410;2023-02-28T00:57:17;2.70;69.67
76291;DHT22;65100;46.884;17.410;2023-02-28T00:59:42;2.50;71.47
76291;DHT22;65100;46.884;17.410;2023-02-28T01:02:08;2.56;71.88
76291;DHT22;65100;46.884;17.410;2023-02-28T01:04:33;2.48;72.68
76291;DHT22;65100;46.884;17.410;2023-02-28T01:06:59;2.32;72.51
76291;DHT22;65100;46.884;17.410;2023-02-28T01:09:24;2.15;73.60
76291;DHT22;65100;46.884;17.410;2023-02-28T01:11:50;2.46;72.59
76291;DHT22;65100;46.884;17.410;2023-02-28T01:14:16;2.42;72.05
76291;DHT22;65100;46.884;17.410;2023-02-28T01:16:42;2.39;71.95
76291;DHT22;65100;46.884;17.410;2023-02-28T01:19:08;2.28;72.32
76291;DHT22;65100;46.884;17.410;2023-02-28T01:21:33;2.19;72.87
76291;DHT22;65100;46.884;17.410;2023-02-28T01:24:00;2.42;73.51
76291;DHT22;65100;46.884;17.410;2023-02-28T01:26:25;2.38;71.77
76291;DHT22;65100;46.884;17.410;2023-02-28T01:28:52;2.38;71.88
76291;DHT22;65100;46.884;17.410;2023-02-28T01:31:18;2.29;71.32
76291;DHT22;65100;46.884;17.410;2023-02-28T01:33:45;2.25;71.55
76291;DHT22;65100;46.884;17.410;2023-02-28T01:36:16;2.19;71.67
76291;DHT22;65100;46.884;17.410;2023-02-28T01:38:42;2.18;71.38
76291;DHT22;65100;46.884;17.410;2023-02-28T01:41:08;2.30;71.00
76291;DHT22;65100;46.884;17.410;2023-02-28T01:46:07;2.21;70.97
76291;DHT22;65100;46.884;17.410;2023-02-28T01:48:35;2.24;71.50
76291;DHT22;65100;46.884;17.410;2023-02-28T01:51:12;2.15;71.24
76291;DHT22;65100;46.884;17.410;2023-02-28T01:53:45;2.48;71.66
76291;DHT22;65100;46.884;17.410;2023-02-28T01:56:12;2.62;72.05
76291;DHT22;65100;46.884;17.410;2023-02-28T01:58:52;2.67;70.14
76291;DHT22;65100;46.884;17.410;2023-02-28T02:01:19;2.69;70.20
76291;DHT22;65100;46.884;17.410;2023-02-28T02:03:53;2.59;70.10
76291;DHT22;65100;46.884;17.410;2023-02-28T02:06:29;2.30;71.05
76291;DHT22;65100;46.884;17.410;2023-02-28T02:08:55;2.73;72.77
76291;DHT22;65100;46.884;17.410;2023-02-28T02:11:22;2.63;70.14
76291;DHT22;65100;46.884;17.410;2023-02-28T02:25:49;2.77;69.70
76291;DHT22;65100;46.884;17.410;2023-02-28T02:36:53;2.73;69.45
76291;DHT22;65100;46.884;17.410;2023-02-28T02:39:39;2.53;70.87
76291;DHT22;65100;46.884;17.410;2023-02-28T02:42:14;2.56;70.10
76291;DHT22;65100;46.884;17.410;2023-02-28T02:44:43;2.30;71.50
76291;DHT22;65100;46.884;17.410;2023-02-28T02:47:14;2.29;71.16
76291;DHT22;65100;46.884;17.410;2023-02-28T02:49:45;2.38;71.24
76291;DHT22;65100;46.884;17.410;2023-02-28T02:52:14;2.43;69.46
76291;DHT22;65100;46.884;17.410;2023-02-28T02:54:44;2.04;69.77
76291;DHT22;65100;46.884;17.410;2023-02-28T02:57:15;2.40;68.87
76291;DHT22;65100;46.884;17.410;2023-02-28T02:59:43;2.42;69.97
76291;DHT22;65100;46.884;17.410;2023-02-28T03:02:12;2.24;71.08
76291;DHT22;65100;46.884;17.410;2023-02-28T03:04:46;2.49;67.27
76291;DHT22;65100;46.884;17.410;2023-02-28T03:07:12;2.24;68.84
76291;DHT22;65100;46.884;17.410;2023-02-28T03:09:38;2.35;69.58
76291;DHT22;65100;46.884;17.410;2023-02-28T03:12:04;2.56;67.50
76291;DHT22;65100;46.884;17.410;2023-02-28T03:14:51;2.38;66.36
76291;DHT22;65100;46.884;17.410;2023-02-28T03:23:28;2.21;66.80
76291;DHT22;65100;46.884;17.410;2023-02-28T03:26:02;2.08;65.46
76291;DHT22;65100;46.884;17.410;2023-02-28T03:28:41;1.92;65.33
76291;DHT22;65100;46.884;17.410;2023-02-28T03:33:49;2.01;65.59
76291;DHT22;65100;46.884;17.410;2023-02-28T03:36:24;1.82;66.28
76291;DHT22;65100;46.884;17.410;2023-02-28T03:38:55;1.78;66.34
76291;DHT22;65100;46.884;17.410;2023-02-28T03:43:53;1.97;66.01
76291;DHT22;65100;46.884;17.410;2023-02-28T03:46:22;1.88;66.59
76291;DHT22;65100;46.884;17.410;2023-02-28T03:49:08;1.98;65.66
76291;DHT22;65100;46.884;17.410;2023-02-28T03:51:38;1.88;65.87
76291;DHT22;65100;46.884;17.410;2023-02-28T03:54:11;1.88;67.28
76291;DHT22;65100;46.884;17.410;2023-02-28T03:56:40;1.89;65.92
76291;DHT22;65100;46.884;17.410;2023-02-28T03:59:22;1.88;66.17
76291;DHT22;65100;46.884;17.410;2023-02-28T04:01:50;2.04;68.20
76291;DHT22;65100;46.884;17.410;2023-02-28T04:04:17;1.89;66.58
76291;DHT22;65100;46.884;17.410;2023-02-28T04:06:44;1.98;66.23
76291;DHT22;65100;46.884;17.410;2023-02-28T04:09:12;2.11;65.79
76291;DHT22;65100;46.884;17.410;2023-02-28T04:11:40;2.16;65.67
76291;DHT22;65100;46.884;17.410;2023-02-28T04:14:08;2.16;65.82
76291;DHT22;65100;46.884;17.410;2023-02-28T04:16:36;2.05;66.44
76291;DHT22;65100;46.884;17.410;2023-02-28T04:19:03;2.09;66.25
76291;DHT22;65100;46.884;17.410;2023-02-28T04:21:42;1.89;66.66
76291;DHT22;65100;46.884;17.410;2023-02-28T04:24:09;1.91;67.31
76291;DHT22;65100;46.884;17.410;2023-02-28T04:26:40;1.98;66.92
76291;DHT22;65100;46.884;17.410;2023-02-28T04:29:06;1.98;67.29
76291;DHT22;65100;46.884;17.410;2023-02-28T04:31:32;1.98;67.24
76291;DHT22;65100;46.884;17.410;2023-02-28T04:33:59;1.74;68.09
76291;DHT22;65100;46.884;17.410;2023-02-28T04:36:24;1.75;67.80
76291;DHT22;65100;46.884;17.410;2023-02-28T04:38:50;1.81;68.04
76291;DHT22;65100;46.884;17.410;2023-02-28T04:41:16;1.74;68.24
76291;DHT22;65100;46.884;17.410;2023-02-28T04:43:42;1.72;68.38
76291;DHT22;65100;46.884;17.410;2023-02-28T04:46:08;1.79;68.61
76291;DHT22;65100;46.884;17.410;2023-02-28T04:48:35;1.79;68.15
76291;DHT22;65100;46.884;17.410;2023-02-28T04:51:06;1.81;69.18
76291;DHT22;65100;46.884;17.410;2023-02-28T04:53:32;1.72;68.72
76291;DHT22;65100;46.884;17.410;2023-02-28T04:55:59;1.77;68.98
76291;DHT22;65100;46.884;17.410;2023-02-28T04:58:24;1.81;69.58
76291;DHT22;65100;46.884;17.410;2023-02-28T05:00:51;1.94;68.58
76291;DHT22;65100;46.884;17.410;2023-02-28T05:03:17;1.94;69.50
76291;DHT22;65100;46.884;17.410;2023-02-28T05:05:42;2.02;68.46
76291;DHT22;65100;46.884;17.410;2023-02-28T05:08:08;2.09;67.75
76291;DHT22;65100;46.884;17.410;2023-02-28T05:10:35;2.02;68.18
76291;DHT22;65100;46.884;17.410;2023-02-28T05:13:01;1.89;69.17
76291;DHT22;65100;46.884;17.410;2023-02-28T05:15:26;1.88;68.97
76291;DHT22;65100;46.884;17.410;2023-02-28T05:17:51;1.97;68.98
76291;DHT22;65100;46.884;17.410;2023-02-28T05:20:17;2.06;68.57
76291;DHT22;65100;46.884;17.410;2023-02-28T05:22:43;2.22;68.10
76291;DHT22;65100;46.884;17.410;2023-02-28T05:25:15;2.01;69.07
76291;DHT22;65100;46.884;17.410;2023-02-28T05:27:41;2.08;68.92
76291;DHT22;65100;46.884;17.410;2023-02-28T05:30:07;1.78;69.47
76291;DHT22;65100;46.884;17.410;2023-02-28T05:32:38;1.78;69.88
76291;DHT22;65100;46.884;17.410;2023-02-28T05:35:08;1.99;68.89
76291;DHT22;65100;46.884;17.410;2023-02-28T05:37:34;1.70;69.92
76291;DHT22;65100;46.884;17.410;2023-02-28T05:39:59;1.68;69.85
76291;DHT22;65100;46.884;17.410;2023-02-28T05:42:25;1.68;70.00
76291;DHT22;65100;46.884;17.410;2023-02-28T05:44:50;1.71;69.83
76291;DHT22;65100;46.884;17.410;2023-02-28T05:47:17;1.58;70.15
76291;DHT22;65100;46.884;17.410;2023-02-28T05:49:42;1.14;72.28
76291;DHT22;65100;46.884;17.410;2023-02-28T05:52:08;1.16;73.26
76291;DHT22;65100;46.884;17.410;2023-02-28T05:54:33;1.34;72.89
76291;DHT22;65100;46.884;17.410;2023-02-28T05:56:59;1.47;72.32
76291;DHT22;65100;46.884;17.410;2023-02-28T05:59:24;1.55;71.88
76291;DHT22;65100;46.884;17.410;2023-02-28T06:01:50;1.85;72.47
76291;DHT22;65100;46.884;17.410;2023-02-28T06:04:19;1.77;71.38
76291;DHT22;65100;46.884;17.410;2023-02-28T06:06:48;1.46;71.95
76291;DHT22;65100;46.884;17.410;2023-02-28T06:09:14;1.40;72.65
76291;DHT22;65100;46.884;17.410;2023-02-28T06:11:40;1.84;71.92
76291;DHT22;65100;46.884;17.410;2023-02-28T06:14:06;2.52;69.92
76291;DHT22;65100;46.884;17.410;2023-02-28T06:16:33;3.00;67.69
76291;DHT22;65100;46.884;17.410;2023-02-28T06:19:00;3.11;67.37
76291;DHT22;65100;46.884;17.410;2023-02-28T06:21:27;3.00;67.16
76291;DHT22;65100;46.884;17.410;2023-02-28T06:23:53;3.28;67.21
76291;DHT22;65100;46.884;17.410;2023-02-28T06:26:19;3.26;66.88
76291;DHT22;65100;46.884;17.410;2023-02-28T06:28:44;2.94;66.83
76291;DHT22;65100;46.884;17.410;2023-02-28T06:31:12;2.38;69.80
76291;DHT22;65100;46.884;17.410;2023-02-28T06:33:39;2.53;69.57
76291;DHT22;65100;46.884;17.410;2023-02-28T06:36:05;2.56;63.87
76291;DHT22;65100;46.884;17.410;2023-02-28T06:38:32;2.79;63.87
76291;DHT22;65100;46.884;17.410;2023-02-28T06:40:59;3.06;66.36
76291;DHT22;65100;46.884;17.410;2023-02-28T06:43:27;3.30;65.08
76291;DHT22;65100;46.884;17.410;2023-02-28T06:45:58;3.17;63.24
76291;DHT22;65100;46.884;17.410;2023-02-28T06:48:24;3.20;64.38
76291;DHT22;65100;46.884;17.410;2023-02-28T06:50:50;2.94;64.54
76291;DHT22;65100;46.884;17.410;2023-02-28T06:53:16;2.99;64.77
76291;DHT22;65100;46.884;17.410;2023-02-28T06:55:41;2.99;63.51
76291;DHT22;65100;46.884;17.410;2023-02-28T06:58:07;3.14;62.29
76291;DHT22;65100;46.884;17.410;2023-02-28T07:00:45;3.06;62.94
76291;DHT22;65100;46.884;17.410;2023-02-28T07:03:12;2.70;63.73
76291;DHT22;65100;46.884;17.410;2023-02-28T07:05:38;3.20;62.33
76291;DHT22;65100;46.884;17.410;2023-02-28T07:08:04;3.14;61.52
76291;DHT22;65100;46.884;17.410;2023-02-28T07:10:31;3.08;61.43
76291;DHT22;65100;46.884;17.410;2023-02-28T07:12:58;3.10;61.52
76291;DHT22;65100;46.884;17.410;2023-02-28T07:15:24;3.20;60.68
76291;DHT22;65100;46.884;17.410;2023-02-28T07:17:49;3.03;60.10
76291;DHT22;65100;46.884;17.410;2023-02-28T07:20:15;3.20;59.94
76291;DHT22;65100;46.884;17.410;2023-02-28T07:22:41;3.30;59.93
76291;DHT22;65100;46.884;17.410;2023-02-28T07:25:07;3.08;60.31
76291;DHT22;65100;46.884;17.410;2023-02-28T07:27:33;3.17;59.33
76291;DHT22;65100;46.884;17.410;2023-02-28T07:29:59;3.52;59.49
76291;DHT22;65100;46.884;17.410;2023-02-28T07:32:27;3.27;58.16
76291;DHT22;65100;46.884;17.410;2023-02-28T07:34:53;3.08;59.40
76291;DHT22;65100;46.884;17.410;2023-02-28T07:37:19;3.30;58.62
76291;DHT22;65100;46.884;17.410;2023-02-28T07:39:44;3.20;58.97
76291;DHT22;65100;46.884;17.410;2023-02-28T07:42:10;3.31;58.92
76291;DHT22;65100;46.884;17.410;2023-02-28T07:44:40;3.34;59.47
76291;DHT22;65100;46.884;17.410;2023-02-28T07:47:09;3.48;59.32
76291;DHT22;65100;46.884;17.410;2023-02-28T07:49:42;3.50;66.54
76291;DHT22;65100;46.884;17.410;2023-02-28T07:52:13;3.67;63.99
76291;DHT22;65100;46.884;17.410;2023-02-28T07:54:38;3.65;57.71
76291;DHT22;65100;46.884;17.410;2023-02-28T07:57:04;3.39;57.53
76291;DHT22;65100;46.884;17.410;2023-02-28T07:59:29;3.55;58.76
76291;DHT22;65100;46.884;17.410;2023-02-28T08:01:57;3.70;57.28
76291;DHT22;65100;46.884;17.410;2023-02-28T08:04:22;3.95;56.99
76291;DHT22;65100;46.884;17.410;2023-02-28T08:06:48;3.71;56.91
76291;DHT22;65100;46.884;17.410;2023-02-28T08:09:13;3.64;58.00
76291;DHT22;65100;46.884;17.410;2023-02-28T08:11:39;3.79;60.73
76291;DHT22;65100;46.884;17.410;2023-02-28T08:14:05;3.95;56.35
76291;DHT22;65100;46.884;17.410;2023-02-28T08:16:31;3.96;56.54
76291;DHT22;65100;46.884;17.410;2023-02-28T08:18:56;3.54;57.13
76291;DHT22;65100;46.884;17.410;2023-02-28T08:21:22;3.62;56.66
76291;DHT22;65100;46.884;17.410;2023-02-28T08:23:48;3.92;55.52
76291;DHT22;65100;46.884;17.410;2023-02-28T08:26:14;3.86;56.23
76291;DHT22;65100;46.884;17.410;2023-02-28T08:28:40;4.02;54.37
76291;DHT22;65100;46.884;17.410;2023-02-28T08:31:10;4.25;53.96
76291;DHT22;65100;46.884;17.410;2023-02-28T08:33:36;4.23;54.58
76291;DHT22;65100;46.884;17.410;2023-02-28T08:36:02;4.33;54.13
76291;DHT22;65100;46.884;17.410;2023-02-28T08:38:27;4.59;54.24
76291;DHT22;65100;46.884;17.410;2023-02-28T08:41:05;4.84;53.45
76291;DHT22;65100;46.884;17.410;2023-02-28T08:43:33;5.03;52.96
76291;DHT22;65100;46.884;17.410;2023-02-28T08:45:59;5.10;51.76
76291;DHT22;65100;46.884;17.410;2023-02-28T08:48:26;4.47;52.71
76291;DHT22;65100;46.884;17.410;2023-02-28T08:51:13;4.25;53.77
76291;DHT22;65100;46.884;17.410;2023-02-28T08:53:40;4.26;53.66
76291;DHT22;65100;46.884;17.410;2023-02-28T08:56:08;4.22;53.82
76291;DHT22;65100;46.884;17.410;2023-02-28T08:58:34;4.45;53.08
76291;DHT22;65100;46.884;17.410;2023-02-28T09:01:06;4.64;52.29
76291;DHT22;65100;46.884;17.410;2023-02-28T09:03:32;4.47;52.99
76291;DHT22;65100;46.884;17.410;2023-02-28T09:05:59;4.32;52.47
76291;DHT22;65100;46.884;17.410;2023-02-28T09:08:27;4.52;54.25
76291;DHT22;65100;46.884;17.410;2023-02-28T09:10:53;4.81;53.98
76291;DHT22;65100;46.884;17.410;2023-02-28T09:13:19;5.42;56.30
76291;DHT22;65100;46.884;17.410;2023-02-28T09:15:45;5.82;51.97
76291;DHT22;65100;46.884;17.410;2023-02-28T09:18:11;5.78;51.35
76291;DHT22;65100;46.884;17.410;2023-02-28T09:20:38;6.03;50.46
76291;DHT22;65100;46.884;17.410;2023-02-28T09:23:05;5.59;48.38
76291;DHT22;65100;46.884;17.410;2023-02-28T09:25:31;5.85;50.41
76291;DHT22;65100;46.884;17.410;2023-02-28T09:27:56;6.09;49.47
76291;DHT22;65100;46.884;17.410;2023-02-28T09:30:22;6.67;50.43
76291;DHT22;65100;46.884;17.410;2023-02-28T09:32:47;6.69;47.36
76291;DHT22;65100;46.884;17.410;2023-02-28T09:35:19;6.39;47.47
76291;DHT22;65100;46.884;17.410;2023-02-28T09:37:47;6.49;46.24
76291;DHT22;65100;46.884;17.410;2023-02-28T09:40:13;7.42;46.31
76291;DHT22;65100;46.884;17.410;2023-02-28T09:42:40;7.99;46.81
76291;DHT22;65100;46.884;17.410;2023-02-28T09:45:22;7.99;50.67
76291;DHT22;65100;46.884;17.410;2023-02-28T09:47:48;7.29;46.13
76291;DHT22;65100;46.884;17.410;2023-02-28T09:50:45;7.17;50.06
76291;DHT22;65100;46.884;17.410;2023-02-28T09:53:22;6.77;49.80
76291;DHT22;65100;46.884;17.410;2023-02-28T09:55:55;6.69;46.54
76291;DHT22;65100;46.884;17.410;2023-02-28T09:58:46;6.74;48.45
76291;DHT22;65100;46.884;17.410;2023-02-28T10:03:55;6.81;50.47
76291;DHT22;65100;46.884;17.410;2023-02-28T10:06:28;6.91;45.90
76291;DHT22;65100;46.884;17.410;2023-02-28T10:09:02;6.93;51.39
76291;DHT22;65100;46.884;17.410;2023-02-28T10:11:29;7.07;49.66
76291;DHT22;65100;46.884;17.410;2023-02-28T10:14:21;7.03;50.13
76291;DHT22;65100;46.884;17.410;2023-02-28T10:17:11;6.95;47.81
76291;DHT22;65100;46.884;17.410;2023-02-28T10:24:53;6.79;54.02
76291;DHT22;65100;46.884;17.410;2023-02-28T10:29:53;7.03;52.71
76291;DHT22;65100;46.884;17.410;2023-02-28T10:32:25;7.22;48.90
76291;DHT22;65100;46.884;17.410;2023-02-28T10:37:24;6.79;47.33
76291;DHT22;65100;46.884;17.410;2023-02-28T10:39:49;6.70;48.97
76291;DHT22;65100;46.884;17.410;2023-02-28T10:42:27;6.95;52.27
76291;DHT22;65100;46.884;17.410;2023-02-28T10:45:17;6.61;48.08
76291;DHT22;65100;46.884;17.410;2023-02-28T10:55:41;7.34;53.12
76291;DHT22;65100;46.884;17.410;2023-02-28T10:58:27;7.32;50.06
76291;DHT22;65100;46.884;17.410;2023-02-28T11:00:53;7.62;50.43
76291;DHT22;65100;46.884;17.410;2023-02-28T11:03:37;7.72;47.11
76291;DHT22;65100;46.884;17.410;2023-02-28T11:06:08;7.72;47.34
76291;DHT22;65100;46.884;17.410;2023-02-28T11:09:05;7.71;48.07
76291;DHT22;65100;46.884;17.410;2023-02-28T11:11:45;7.14;50.56
76291;DHT22;65100;46.884;17.410;2023-02-28T11:14:29;6.88;46.71
76291;DHT22;65100;46.884;17.410;2023-02-28T11:16:59;6.74;48.08
76291;DHT22;65100;46.884;17.410;2023-02-28T11:19:34;6.54;46.70
76291;DHT22;65100;46.884;17.410;2023-02-28T11:22:05;7.00;51.93
76291;DHT22;65100;46.884;17.410;2023-02-28T11:24:35;7.39;51.17
76291;DHT22;65100;46.884;17.410;2023-02-28T11:27:02;6.80;48.37
76291;DHT22;65100;46.884;17.410;2023-02-28T11:29:30;7.42;47.47
76291;DHT22;65100;46.884;17.410;2023-02-28T11:34:38;7.99;48.13
76291;DHT22;65100;46.884;17.410;2023-02-28T11:37:05;7.96;46.33
76291;DHT22;65100;46.884;17.410;2023-02-28T11:39:36;8.07;52.35
76291;DHT22;65100;46.884;17.410;2023-02-28T11:44:56;7.48;47.34
76291;DHT22;65100;46.884;17.410;2023-02-28T12:09:00;7.15;46.00
76291;DHT22;65100;46.884;17.410;2023-02-28T12:11:51;7.15;49.40
76291;DHT22;65100;46.884;17.410;2023-02-28T12:19:58;7.19;48.62
76291;DHT22;65100;46.884;17.410;2023-02-28T12:22:50;7.09;46.01
76291;DHT22;65100;46.884;17.410;2023-02-28T12:28:27;7.03;45.66
76291;DHT22;65100;46.884;17.410;2023-02-28T12:31:00;7.14;44.74
76291;DHT22;65100;46.884;17.410;2023-02-28T12:33:33;7.09;46.77
76291;DHT22;65100;46.884;17.410;2023-02-28T12:36:05;7.38;48.26
76291;DHT22;65100;46.884;17.410;2023-02-28T12:41:16;7.49;50.67
76291;DHT22;65100;46.884;17.410;2023-02-28T12:43:49;7.56;46.10
76291;DHT22;65100;46.884;17.410;2023-02-28T12:46:21;7.22;45.48
76291;DHT22;65100;46.884;17.410;2023-02-28T12:48:54;7.03;47.16
76291;DHT22;65100;46.884;17.410;2023-02-28T12:51:22;7.09;47.74
76291;DHT22;65100;46.884;17.410;2023-02-28T13:01:55;7.22;49.09
76291;DHT22;65100;46.884;17.410;2023-02-28T13:10:04;6.85;48.83
76291;DHT22;65100;46.884;17.410;2023-02-28T13:12:33;7.19;48.00
76291;DHT22;65100;46.884;17.410;2023-02-28T13:15:18;7.12;48.18
76291;DHT22;65100;46.884;17.410;2023-02-28T13:18:00;7.09;48.62
76291;DHT22;65100;46.884;17.410;2023-02-28T13:20:31;7.04;47.24
76291;DHT22;65100;46.884;17.410;2023-02-28T13:22:58;6.98;47.69
76291;DHT22;65100;46.884;17.410;2023-02-28T13:28:13;7.32;48.38
76291;DHT22;65100;46.884;17.410;2023-02-28T13:38:40;7.24;48.92
76291;DHT22;65100;46.884;17.410;2023-02-28T13:58:06;6.77;52.97
76291;DHT22;65100;46.884;17.410;2023-02-28T14:00:58;6.85;50.97
76291;DHT22;65100;46.884;17.410;2023-02-28T14:08:55;6.73;50.16
76291;DHT22;65100;46.884;17.410;2023-02-28T14:11:33;6.88;54.06
76291;DHT22;65100;46.884;17.410;2023-02-28T14:14:00;7.00;51.58
76291;DHT22;65100;46.884;17.410;2023-02-28T14:16:34;6.97;53.79
76291;DHT22;65100;46.884;17.410;2023-02-28T14:19:11;6.80;51.23
76291;DHT22;65100;46.884;17.410;2023-02-28T14:21:45;6.74;53.14
76291;DHT22;65100;46.884;17.410;2023-02-28T14:32:10;6.83;49.73
76291;DHT22;65100;46.884;17.410;2023-02-28T14:37:16;6.95;53.34
76291;DHT22;65100;46.884;17.410;2023-02-28T14:39:44;6.90;52.38
76291;DHT22;65100;46.884;17.410;2023-02-28T14:42:33;6.97;55.39
76291;DHT22;65100;46.884;17.410;2023-02-28T14:44:59;6.87;51.49
76291;DHT22;65100;46.884;17.410;2023-02-28T14:47:33;6.77;51.16
76291;DHT22;65100;46.884;17.410;2023-02-28T14:50:02;7.00;51.99
76291;DHT22;65100;46.884;17.410;2023-02-28T14:52:30;6.88;50.61
76291;DHT22;65100;46.884;17.410;2023-02-28T14:54:59;6.88;49.88
76291;DHT22;65100;46.884;17.410;2023-02-28T14:57:34;7.09;51.80
76291;DHT22;65100;46.884;17.410;2023-02-28T15:02:38;7.27;51.53
76291;DHT22;65100;46.884;17.410;2023-02-28T15:07:42;6.87;48.41
76291;DHT22;65100;46.884;17.410;2023-02-28T15:10:09;6.97;48.85
76291;DHT22;65100;46.884;17.410;2023-02-28T15:12:35;6.80;49.43
76291;DHT22;65100;46.884;17.410;2023-02-28T15:15:02;6.83;50.11
76291;DHT22;65100;46.884;17.410;2023-02-28T15:17:28;6.94;49.92
76291;DHT22;65100;46.884;17.410;2023-02-28T15:19:54;6.77;49.38
76291;DHT22;65100;46.884;17.410;2023-02-28T15:22:33;6.64;49.75
76291;DHT22;65100;46.884;17.410;2023-02-28T15:24:59;6.67;50.45
76291;DHT22;65100;46.884;17.410;2023-02-28T15:27:30;6.49;50.94
76291;DHT22;65100;46.884;17.410;2023-02-28T15:30:06;6.49;51.21
76291;DHT22;65100;46.884;17.410;2023-02-28T15:32:37;6.60;50.49
76291;DHT22;65100;46.884;17.410;2023-02-28T15:35:37;6.37;50.44
76291;DHT22;65100;46.884;17.410;2023-02-28T15:40:36;6.54;51.58
76291;DHT22;65100;46.884;17.410;2023-02-28T15:43:26;6.40;52.17
76291;DHT22;65100;46.884;17.410;2023-02-28T15:46:01;6.16;51.82
76291;DHT22;65100;46.884;17.410;2023-02-28T15:48:30;6.23;51.91
76291;DHT22;65100;46.884;17.410;2023-02-28T15:51:13;6.32;51.76
76291;DHT22;65100;46.884;17.410;2023-02-28T15:53:57;6.22;51.67
76291;DHT22;65100;46.884;17.410;2023-02-28T15:56:30;6.13;51.55
76291;DHT22;65100;46.884;17.410;2023-02-28T15:58:57;5.95;53.25
76291;DHT22;65100;46.884;17.410;2023-02-28T16:01:29;6.22;54.05
76291;DHT22;65100;46.884;17.410;2023-02-28T16:04:01;6.22;55.52
76291;DHT22;65100;46.884;17.410;2023-02-28T16:06:46;6.19;53.14
76291;DHT22;65100;46.884;17.410;2023-02-28T16:09:16;6.15;53.20
76291;DHT22;65100;46.884;17.410;2023-02-28T16:11:47;6.22;52.85
76291;DHT22;65100;46.884;17.410;2023-02-28T16:14:16;6.17;52.32
76291;DHT22;65100;46.884;17.410;2023-02-28T16:16:43;6.05;52.58
76291;DHT22;65100;46.884;17.410;2023-02-28T16:19:09;6.12;52.73
76291;DHT22;65100;46.884;17.410;2023-02-28T16:21:34;5.98;53.03
76291;DHT22;65100;46.884;17.410;2023-02-28T16:24:00;5.96;53.38
76291;DHT22;65100;46.884;17.410;2023-02-28T16:26:25;5.96;53.35
76291;DHT22;65100;46.884;17.410;2023-02-28T16:28:53;5.99;53.18
76291;DHT22;65100;46.884;17.410;2023-02-28T16:31:19;6.01;53.19
76291;DHT22;65100;46.884;17.410;2023-02-28T16:33:46;5.91;53.66
76291;DHT22;65100;46.884;17.410;2023-02-28T16:36:20;5.86;53.60
76291;DHT22;65100;46.884;17.410;2023-02-28T16:38:45;5.75;54.09
76291;DHT22;65100;46.884;17.410;2023-02-28T16:41:22;5.69;54.42
76291;DHT22;65100;46.884;17.410;2023-02-28T16:43:52;5.62;54.91
76291;DHT22;65100;46.884;17.410;2023-02-28T16:46:20;5.76;54.24
76291;DHT22;65100;46.884;17.410;2023-02-28T16:48:46;5.71;54.33
76291;DHT22;65100;46.884;17.410;2023-02-28T16:51:15;5.65;54.43
76291;DHT22;65100;46.884;17.410;2023-02-28T16:53:42;5.56;55.13
76291;DHT22;65100;46.884;17.410;2023-02-28T16:56:16;5.56;54.83
76291;DHT22;65100;46.884;17.410;2023-02-28T16:58:42;5.47;55.35
76291;DHT22;65100;46.884;17.410;2023-02-28T17:01:07;5.58;54.81
76291;DHT22;65100;46.884;17.410;2023-02-28T17:03:38;5.59;54.80
76291;DHT22;65100;46.884;17.410;2023-02-28T17:06:06;5.61;54.92
76291;DHT22;65100;46.884;17.410;2023-02-28T17:08:32;5.49;55.21
76291;DHT22;65100;46.884;17.410;2023-02-28T17:11:00;5.61;54.89
76291;DHT22;65100;46.884;17.410;2023-02-28T17:13:27;5.56;55.01
76291;DHT22;65100;46.884;17.410;2023-02-28T17:15:53;5.55;56.87
76291;DHT22;65100;46.884;17.410;2023-02-28T17:18:19;5.47;57.52
76291;DHT22;65100;46.884;17.410;2023-02-28T17:20:46;5.38;56.69
76291;DHT22;65100;46.884;17.410;2023-02-28T17:23:11;5.37;57.61
76291;DHT22;65100;46.884;17.410;2023-02-28T17:25:37;5.05;59.08
76291;DHT22;65100;46.884;17.410;2023-02-28T17:28:03;5.13;58.59
76291;DHT22;65100;46.884;17.410;2023-02-28T17:30:28;5.11;58.54
76291;DHT22;65100;46.884;17.410;2023-02-28T17:32:55;5.10;58.23
76291;DHT22;65100;46.884;17.410;2023-02-28T17:35:21;5.04;58.01
76291;DHT22;65100;46.884;17.410;2023-02-28T17:37:47;5.10;57.69
76291;DHT22;65100;46.884;17.410;2023-02-28T17:40:16;5.05;58.70
76291;DHT22;65100;46.884;17.410;2023-02-28T17:42:43;4.90;57.94
76291;DHT22;65100;46.884;17.410;2023-02-28T17:45:13;4.79;58.56
76291;DHT22;65100;46.884;17.410;2023-02-28T17:47:46;4.74;59.23
76291;DHT22;65100;46.884;17.410;2023-02-28T17:50:20;4.67;59.24
76291;DHT22;65100;46.884;17.410;2023-02-28T17:52:47;4.63;60.34
76291;DHT22;65100;46.884;17.410;2023-02-28T17:55:12;4.57;59.34
76291;DHT22;65100;46.884;17.410;2023-02-28T17:57:38;4.56;59.71
76291;DHT22;65100;46.884;17.410;2023-02-28T18:00:05;4.43;60.09
76291;DHT22;65100;46.884;17.410;2023-02-28T18:02:34;4.59;59.71
76291;DHT22;65100;46.884;17.410;2023-02-28T18:04:59;4.54;59.20
76291;DHT22;65100;46.884;17.410;2023-02-28T18:07:25;4.49;60.45
76291;DHT22;65100;46.884;17.410;2023-02-28T18:09:50;4.47;59.81
76291;DHT22;65100;46.884;17.410;2023-02-28T18:12:16;4.42;60.25
76291;DHT22;65100;46.884;17.410;2023-02-28T18:14:41;4.32;60.10
76291;DHT22;65100;46.884;17.410;2023-02-28T18:17:09;4.35;60.67
76291;DHT22;65100;46.884;17.410;2023-02-28T18:19:37;4.40;62.36
76291;DHT22;65100;46.884;17.410;2023-02-28T18:22:03;4.29;61.36